Airfield :
LOGIN :

Register | Disclaimer

   EN    FR    IT 

 










Legend :    VFR   Marginal VFR   IFR   Intensive IFR   Very Intensive IFR
Visi :
Ceiling :
>= 8 km
>= 3000ft
5 to 8 km
1000 to 3000 ft
1500m to 5 km
500 to 1000 ft
800 to 1500m
200 to 500 ft
< 800m
< 200 ft
Symbols :   Thunderstorms  Fog  Heavy snow  Heavy precipitations  Wind > 20 kt
SIGMETs :     Misc.  Thunderstorms  Icing  Turbulence  Mountain Waves  Volcanic Ashes






- Airport Elevation : 1682 ft
- IATA code : VIT


LEVT - Vitoria Gasteiz

CURRENT METAR :
  • 121430Z 22005KT 9999 SCT045CB SCT050TCU 23/18 Q1013 RESHRA RETS

EXPIRED METARs :
  • 121415Z 20004KT 160V240 9999 TS SCT045CB SCT060TCU 24/17 Q1013 RESHRA
  • 121400Z 25012KT 9999 TS SHRA SCT040CB SCT060TCU 21/15 Q1013
  • 121330Z 24007KT 170V280 9999 TS SCT050CB SCT060TCU 26/13 Q1014
  • 121300Z 19008KT 140V250 9999 SCT055TCU FEW060CB 28/12 Q1014
  • 121230Z 22010KT 200V260 9999 VCSH SCT055TCU FEW060CB 27/14 Q1014
  • 121200Z 23012KT 200V260 9999 FEW055TCU FEW060CB 28/13 Q1014

TAF AMD TAF LEVT
Valid from the 12 at 12:00 until the 13 at 12:00 UTC


121203Z 1212/1312 VRB05KT 9999 FEW040 TX27/1214Z TN14/1306Z
PROB40
TEMPO 1212/1222 26015G25KT 3000 TS SHRA SCT030CB
PROB40
TEMPO 1222/1309 3000 -RA BR BKN010
PROB40
TEMPO 1300/1307 BKN005



MET'MAP, your aeronautical weather chart ! - Copyright ORBIFLY December 2007 - Disclaimer

ORBIFLY MET'MAP TEAM :

Programming & Development : Alexandra Zaïnal
Concept & original design : Baudouin d'Aumeries
Assistance for programming : Marc-Olivier Méhu
Technical & hardware support : Manuel Goepfert

Contact : metmap@orbifly.com




SOURCES & CREDITS :

   NOAA